createdAt,value
2018-02-09T00:00:01.700Z,17.94
2018-02-09T00:01:04.189Z,17.92
2018-02-09T00:02:06.672Z,17.90
2018-02-09T00:03:09.172Z,17.87
2018-02-09T00:04:11.660Z,17.86
2018-02-09T00:05:14.138Z,17.83
2018-02-09T00:06:16.615Z,17.81
2018-02-09T00:07:19.104Z,17.78
2018-02-09T00:08:21.615Z,17.77
2018-02-09T00:09:24.118Z,17.74
2018-02-09T00:10:26.627Z,17.73
2018-02-09T00:11:29.159Z,17.70
2018-02-09T00:12:31.645Z,17.69
2018-02-09T00:13:34.156Z,17.68
2018-02-09T00:14:36.624Z,17.65
2018-02-09T00:15:39.116Z,17.63
2018-02-09T00:16:41.612Z,17.62
2018-02-09T00:17:44.094Z,17.61
2018-02-09T00:18:46.594Z,17.60
2018-02-09T00:19:49.070Z,17.58
2018-02-09T00:20:51.573Z,17.56
2018-02-09T00:21:54.050Z,17.55
2018-02-09T00:22:56.543Z,17.54
2018-02-09T00:23:59.123Z,17.53
2018-02-09T00:25:01.602Z,17.51
2018-02-09T00:26:04.097Z,17.50
2018-02-09T00:27:06.623Z,17.48
2018-02-09T00:28:09.116Z,17.46
2018-02-09T00:29:11.590Z,17.44
2018-02-09T00:30:14.088Z,17.43
2018-02-09T00:31:16.593Z,17.41
2018-02-09T00:32:19.104Z,17.41
2018-02-09T00:33:21.582Z,17.40
2018-02-09T00:34:24.052Z,17.39
2018-02-09T00:35:26.552Z,17.38
2018-02-09T00:36:29.049Z,17.37
2018-02-09T00:37:31.529Z,17.36
2018-02-09T00:38:34.030Z,17.34
2018-02-09T00:39:36.520Z,17.33
2018-02-09T00:40:38.999Z,17.30
2018-02-09T00:41:41.493Z,17.30
2018-02-09T00:42:43.985Z,17.29
2018-02-09T00:43:46.463Z,17.32
2018-02-09T00:44:48.956Z,17.38
2018-02-09T00:45:51.438Z,17.44
2018-02-09T00:46:53.929Z,17.54
2018-02-09T00:47:56.407Z,17.61
2018-02-09T00:48:58.905Z,17.71
2018-02-09T00:50:01.396Z,17.78
2018-02-09T00:51:03.872Z,17.82
2018-02-09T00:52:06.351Z,17.89
2018-02-09T00:53:08.848Z,17.94
2018-02-09T00:54:11.340Z,17.96
2018-02-09T00:55:13.826Z,17.99
2018-02-09T00:56:16.325Z,18.00
2018-02-09T00:57:18.847Z,18.02
2018-02-09T00:58:21.327Z,18.04
2018-02-09T00:59:23.829Z,18.02
2018-02-09T01:00:26.321Z,18.03
2018-02-09T01:01:28.803Z,18.03
2018-02-09T01:02:31.298Z,18.03
2018-02-09T01:03:33.778Z,18.03
2018-02-09T01:04:36.277Z,18.03
2018-02-09T01:05:38.777Z,18.05
2018-02-09T01:06:41.263Z,18.01
2018-02-09T01:07:43.751Z,18.00
2018-02-09T01:08:46.243Z,17.98
2018-02-09T01:09:48.737Z,17.96
2018-02-09T01:10:51.232Z,17.94
2018-02-09T01:11:53.715Z,17.93
2018-02-09T01:12:56.194Z,17.92
2018-02-09T01:13:58.699Z,17.91
2018-02-09T01:15:01.171Z,17.89
2018-02-09T01:16:03.652Z,17.87
2018-02-09T01:17:06.144Z,17.86
2018-02-09T01:18:08.624Z,17.85
2018-02-09T01:19:11.101Z,17.83
2018-02-09T01:20:13.583Z,17.80
2018-02-09T01:21:16.062Z,17.78
2018-02-09T01:22:18.543Z,17.78
2018-02-09T01:23:21.019Z,17.76
2018-02-09T01:24:23.502Z,17.73
2018-02-09T01:25:25.984Z,17.71
2018-02-09T01:26:28.480Z,17.70
2018-02-09T01:27:30.977Z,17.70
2018-02-09T01:28:33.465Z,17.71
2018-02-09T01:29:35.957Z,17.76
2018-02-09T01:30:38.448Z,17.84
2018-02-09T01:31:40.940Z,17.92
2018-02-09T01:32:43.441Z,17.98
2018-02-09T01:33:45.915Z,18.06
2018-02-09T01:34:48.439Z,18.10
2018-02-09T01:35:50.965Z,18.15
2018-02-09T01:36:53.451Z,18.20
2018-02-09T01:37:55.940Z,18.23
2018-02-09T01:38:58.415Z,18.25
2018-02-09T01:40:00.894Z,18.26
2018-02-09T01:41:03.383Z,18.28
2018-02-09T01:42:05.858Z,18.30
2018-02-09T01:43:08.347Z,18.30
2018-02-09T01:44:10.841Z,18.30
2018-02-09T01:45:13.332Z,18.29
2018-02-09T01:46:15.820Z,18.28
2018-02-09T01:47:18.294Z,18.27
2018-02-09T01:48:20.780Z,18.25
2018-02-09T01:49:23.257Z,18.25
2018-02-09T01:50:25.738Z,18.23
2018-02-09T01:51:28.215Z,18.20
2018-02-09T01:52:30.700Z,18.18
2018-02-09T01:53:33.178Z,18.16
2018-02-09T01:54:35.667Z,18.13
2018-02-09T01:55:38.142Z,18.11
2018-02-09T01:56:40.623Z,18.09
2018-02-09T01:57:43.104Z,18.06
2018-02-09T01:58:45.570Z,18.04
2018-02-09T01:59:48.057Z,18.01
2018-02-09T02:00:50.534Z,18.00
2018-02-09T02:01:53.024Z,17.98
2018-02-09T02:02:55.544Z,17.96
2018-02-09T02:03:58.010Z,17.93
2018-02-09T02:05:00.497Z,17.92
2018-02-09T02:06:02.975Z,17.89
2018-02-09T02:07:05.464Z,17.87
2018-02-09T02:08:07.945Z,17.85
2018-02-09T02:09:10.436Z,17.85
2018-02-09T02:10:12.921Z,17.84
2018-02-09T02:11:15.399Z,17.86
2018-02-09T02:12:17.888Z,17.88
2018-02-09T02:13:20.363Z,17.94
2018-02-09T02:14:22.853Z,18.00
2018-02-09T02:15:25.345Z,18.08
2018-02-09T02:16:27.819Z,18.15
2018-02-09T02:17:30.342Z,18.22
2018-02-09T02:18:32.823Z,18.26
2018-02-09T02:19:35.308Z,18.29
2018-02-09T02:20:37.801Z,18.32
2018-02-09T02:21:40.274Z,18.35
2018-02-09T02:22:42.754Z,18.39
2018-02-09T02:23:45.241Z,18.38
2018-02-09T02:24:47.721Z,18.40
2018-02-09T02:25:50.217Z,18.40
2018-02-09T02:26:52.689Z,18.39
2018-02-09T02:27:55.166Z,18.39
2018-02-09T02:28:57.643Z,18.35
2018-02-09T02:30:00.123Z,18.35
2018-02-09T02:31:02.591Z,18.34
2018-02-09T02:32:05.081Z,18.32
2018-02-09T02:33:07.569Z,18.29
2018-02-09T02:34:10.054Z,18.27
2018-02-09T02:35:12.536Z,18.25
2018-02-09T02:36:15.014Z,18.22
2018-02-09T02:37:17.506Z,18.20
2018-02-09T02:38:19.998Z,18.16
2018-02-09T02:39:22.502Z,18.13
2018-02-09T02:40:25.016Z,18.11
2018-02-09T02:41:27.483Z,18.08
2018-02-09T02:42:29.968Z,18.04
2018-02-09T02:43:32.456Z,18.03
2018-02-09T02:44:34.953Z,18.00
2018-02-09T02:45:37.444Z,17.98
2018-02-09T02:46:39.937Z,17.96
2018-02-09T02:47:42.407Z,17.94
2018-02-09T02:48:44.887Z,17.90
2018-02-09T02:49:47.402Z,17.88
2018-02-09T02:50:49.892Z,17.86
2018-02-09T02:51:52.387Z,17.83
2018-02-09T02:52:54.858Z,17.82
2018-02-09T02:53:57.346Z,17.79
2018-02-09T02:54:59.811Z,17.77
2018-02-09T02:56:02.296Z,17.77
2018-02-09T02:57:04.785Z,17.78
2018-02-09T02:58:07.260Z,17.83
2018-02-09T02:59:09.757Z,17.91
2018-02-09T03:00:12.241Z,17.95
2018-02-09T03:01:14.729Z,18.00
2018-02-09T03:02:17.216Z,18.03
2018-02-09T03:03:19.709Z,18.05
2018-02-09T03:04:22.192Z,18.08
2018-02-09T03:05:24.689Z,18.10
2018-02-09T03:06:27.159Z,18.12
2018-02-09T03:07:29.626Z,18.15
2018-02-09T03:08:32.094Z,18.16
2018-02-09T03:09:34.575Z,18.16
2018-02-09T03:10:37.066Z,18.15
2018-02-09T03:11:39.552Z,18.16
2018-02-09T03:12:42.027Z,18.15
2018-02-09T03:13:44.529Z,18.13
2018-02-09T03:14:47.018Z,18.11
2018-02-09T03:15:49.511Z,18.09
2018-02-09T03:16:51.990Z,18.07
2018-02-09T03:17:54.462Z,18.07
2018-02-09T03:18:56.961Z,18.10
2018-02-09T03:19:59.448Z,18.13
2018-02-09T03:21:01.938Z,18.14
2018-02-09T03:22:04.406Z,18.15
2018-02-09T03:23:06.878Z,18.16
2018-02-09T03:24:09.358Z,18.24
2018-02-09T03:25:11.846Z,18.29
2018-02-09T03:26:14.325Z,18.32
2018-02-09T03:27:16.819Z,18.35
2018-02-09T03:28:19.307Z,18.40
2018-02-09T03:29:21.802Z,18.43
2018-02-09T03:30:24.314Z,18.43
2018-02-09T03:31:26.813Z,18.42
2018-02-09T03:32:29.309Z,18.40
2018-02-09T03:33:31.792Z,18.37
2018-02-09T03:34:34.274Z,18.36
2018-02-09T03:35:36.777Z,18.33
2018-02-09T03:36:39.255Z,18.34
2018-02-09T03:37:41.746Z,18.30
2018-02-09T03:38:44.222Z,18.30
2018-02-09T03:39:46.709Z,18.28
2018-02-09T03:40:49.190Z,18.26
2018-02-09T03:41:51.671Z,18.25
2018-02-09T03:42:54.162Z,18.23
2018-02-09T03:43:56.661Z,18.21
2018-02-09T03:44:59.156Z,18.18
2018-02-09T03:46:01.645Z,18.15
2018-02-09T03:47:04.140Z,18.12
2018-02-09T03:48:06.624Z,18.10
2018-02-09T03:49:09.116Z,18.07
2018-02-09T03:50:11.617Z,18.03
2018-02-09T03:51:14.294Z,18.00
2018-02-09T03:52:16.975Z,17.97
2018-02-09T03:53:19.469Z,17.95
2018-02-09T03:54:21.962Z,17.91
2018-02-09T03:55:24.448Z,17.89
2018-02-09T03:56:26.933Z,17.87
2018-02-09T03:57:29.415Z,17.89
2018-02-09T03:58:31.900Z,17.90
2018-02-09T03:59:34.397Z,17.99
2018-02-09T04:00:36.896Z,18.03
2018-02-09T04:01:39.388Z,18.10
2018-02-09T04:02:41.879Z,18.14
2018-02-09T04:03:44.365Z,18.18
2018-02-09T04:04:46.852Z,18.26
2018-02-09T04:05:49.366Z,18.29
2018-02-09T04:06:51.845Z,18.30
2018-02-09T04:07:54.322Z,18.31
2018-02-09T04:08:56.795Z,18.32
2018-02-09T04:09:59.283Z,18.32
2018-02-09T04:11:01.759Z,18.32
2018-02-09T04:12:04.277Z,18.32
2018-02-09T04:13:06.759Z,18.31
2018-02-09T04:14:09.223Z,18.30
2018-02-09T04:15:11.717Z,18.27
2018-02-09T04:16:14.195Z,18.26
2018-02-09T04:17:16.688Z,18.25
2018-02-09T04:18:19.173Z,18.21
2018-02-09T04:19:21.669Z,18.17
2018-02-09T04:20:24.134Z,18.13
2018-02-09T04:21:26.624Z,18.10
2018-02-09T04:22:29.098Z,18.08
2018-02-09T04:23:31.593Z,18.05
2018-02-09T04:24:34.085Z,18.01
2018-02-09T04:25:36.577Z,17.98
2018-02-09T04:26:39.071Z,17.96
2018-02-09T04:27:41.554Z,17.93
2018-02-09T04:28:44.045Z,17.90
2018-02-09T04:29:46.525Z,17.88
2018-02-09T04:30:49.003Z,17.87
2018-02-09T04:31:51.487Z,17.84
2018-02-09T04:32:53.977Z,17.82
2018-02-09T04:33:56.473Z,17.81
2018-02-09T04:34:58.939Z,17.81
2018-02-09T04:36:01.428Z,17.86
2018-02-09T04:37:03.988Z,17.93
2018-02-09T04:38:06.462Z,18.01
2018-02-09T04:39:08.939Z,18.08
2018-02-09T04:40:11.429Z,18.16
2018-02-09T04:41:13.912Z,18.23
2018-02-09T04:42:16.379Z,18.28
2018-02-09T04:43:18.865Z,18.32
2018-02-09T04:44:21.345Z,18.36
2018-02-09T04:45:23.814Z,18.37
2018-02-09T04:46:26.290Z,18.38
2018-02-09T04:47:28.766Z,18.38
2018-02-09T04:48:31.235Z,18.39
2018-02-09T04:49:33.720Z,18.39
2018-02-09T04:50:36.194Z,18.39
2018-02-09T04:51:38.678Z,18.39
2018-02-09T04:52:41.170Z,18.36
2018-02-09T04:53:43.668Z,18.35
2018-02-09T04:54:46.145Z,18.35
2018-02-09T04:55:48.628Z,18.32
2018-02-09T04:56:51.113Z,18.29
2018-02-09T04:57:53.579Z,18.26
2018-02-09T04:58:56.046Z,18.25
2018-02-09T04:59:58.531Z,18.21
2018-02-09T05:01:01.024Z,18.19
2018-02-09T05:02:03.502Z,18.16
2018-02-09T05:03:05.980Z,18.13
2018-02-09T05:04:08.485Z,18.09
2018-02-09T05:05:10.997Z,18.07
2018-02-09T05:06:13.467Z,18.03
2018-02-09T05:07:15.927Z,18.01
2018-02-09T05:08:18.417Z,17.98
2018-02-09T05:09:20.985Z,17.95
2018-02-09T05:10:23.450Z,17.92
2018-02-09T05:11:25.923Z,17.90
2018-02-09T05:12:28.394Z,17.89
2018-02-09T05:13:30.879Z,17.92
2018-02-09T05:14:33.346Z,17.97
2018-02-09T05:15:35.824Z,18.02
2018-02-09T05:16:38.296Z,18.10
2018-02-09T05:17:40.832Z,18.17
2018-02-09T05:18:43.323Z,18.24
2018-02-09T05:19:45.802Z,18.31
2018-02-09T05:20:48.293Z,18.35
2018-02-09T05:21:50.791Z,18.38
2018-02-09T05:22:53.271Z,18.39
2018-02-09T05:23:55.757Z,18.41
2018-02-09T05:24:58.218Z,18.43
2018-02-09T05:26:00.686Z,18.46
2018-02-09T05:27:03.165Z,18.42
2018-02-09T05:28:05.643Z,18.43
2018-02-09T05:29:08.136Z,18.46
2018-02-09T05:30:10.621Z,18.44
2018-02-09T05:31:13.102Z,18.42
2018-02-09T05:32:15.583Z,18.39
2018-02-09T05:33:18.050Z,18.37
2018-02-09T05:34:20.514Z,18.35
2018-02-09T05:35:23.001Z,18.33
2018-02-09T05:36:25.466Z,18.29
2018-02-09T05:37:27.934Z,18.27
2018-02-09T05:38:30.428Z,18.24
2018-02-09T05:39:32.894Z,18.21
2018-02-09T05:40:35.384Z,18.17
2018-02-09T05:41:37.846Z,18.13
2018-02-09T05:42:40.328Z,18.09
2018-02-09T05:43:42.800Z,18.06
2018-02-09T05:44:45.286Z,18.02
2018-02-09T05:45:47.758Z,18.00
2018-02-09T05:46:50.250Z,17.96
2018-02-09T05:47:52.723Z,17.94
2018-02-09T05:48:55.221Z,17.91
2018-02-09T05:49:57.704Z,17.88
2018-02-09T05:51:00.200Z,17.89
2018-02-09T05:52:02.686Z,17.91
2018-02-09T05:53:05.159Z,17.92
2018-02-09T05:54:07.632Z,17.97
2018-02-09T05:55:10.134Z,18.00
2018-02-09T05:56:12.604Z,18.02
2018-02-09T05:57:15.073Z,18.03
2018-02-09T05:58:17.565Z,18.06
2018-02-09T05:59:20.043Z,18.07
2018-02-09T06:00:22.545Z,18.08
2018-02-09T06:01:25.034Z,18.09
2018-02-09T06:02:27.514Z,18.10
2018-02-09T06:03:30.009Z,18.09
2018-02-09T06:04:32.495Z,18.10
2018-02-09T06:05:34.969Z,18.08
2018-02-09T06:06:37.452Z,18.07
2018-02-09T06:07:39.930Z,18.05
2018-02-09T06:08:42.417Z,18.06
2018-02-09T06:09:44.908Z,18.08
2018-02-09T06:10:47.386Z,18.12
2018-02-09T06:11:49.865Z,18.24
2018-02-09T06:12:52.343Z,18.39
2018-02-09T06:13:54.818Z,18.44
2018-02-09T06:14:57.324Z,18.51
2018-02-09T06:15:59.798Z,18.55
2018-02-09T06:17:02.272Z,18.57
2018-02-09T06:18:04.746Z,18.62
2018-02-09T06:19:07.230Z,18.60
2018-02-09T06:20:09.715Z,18.63
2018-02-09T06:21:12.319Z,18.66
2018-02-09T06:22:14.808Z,18.66
2018-02-09T06:23:17.295Z,18.64
2018-02-09T06:24:19.810Z,18.64
2018-02-09T06:25:22.296Z,18.64
2018-02-09T06:26:24.775Z,18.64
2018-02-09T06:27:27.556Z,18.61
2018-02-09T06:28:30.042Z,18.61
2018-02-09T06:29:32.533Z,18.57
2018-02-09T06:30:35.024Z,18.54
2018-02-09T06:31:37.515Z,18.51
2018-02-09T06:32:40.046Z,18.50
2018-02-09T06:33:42.546Z,18.46
2018-02-09T06:34:45.040Z,18.42
2018-02-09T06:35:47.544Z,18.38
2018-02-09T06:36:50.038Z,18.36
2018-02-09T06:37:52.539Z,18.32
2018-02-09T06:38:55.023Z,18.29
2018-02-09T06:39:57.536Z,18.25
2018-02-09T06:41:00.038Z,18.22
2018-02-09T06:42:02.535Z,18.18
2018-02-09T06:43:05.046Z,18.15
2018-02-09T06:44:07.568Z,18.08
2018-02-09T06:45:10.072Z,18.02
2018-02-09T06:46:12.572Z,17.95
2018-02-09T06:47:15.050Z,17.89
2018-02-09T06:48:17.545Z,17.82
2018-02-09T06:49:20.026Z,17.75
2018-02-09T06:50:22.521Z,17.67
2018-02-09T06:51:25.003Z,17.60
2018-02-09T06:52:27.489Z,17.53
2018-02-09T06:53:29.993Z,17.45
2018-02-09T06:54:32.494Z,17.39
2018-02-09T06:55:35.060Z,17.32
2018-02-09T06:56:37.538Z,17.26
2018-02-09T06:57:45.626Z,17.19
2018-02-09T06:58:48.106Z,17.13
2018-02-09T06:59:50.615Z,17.07
2018-02-09T07:00:53.104Z,17.02
2018-02-09T07:01:55.607Z,16.97
2018-02-09T07:02:58.116Z,16.91
2018-02-09T07:04:00.631Z,16.84
2018-02-09T07:05:03.142Z,16.78
2018-02-09T07:06:05.651Z,16.71
2018-02-09T07:07:10.987Z,16.66
2018-02-09T07:08:13.505Z,16.61
2018-02-09T07:09:15.996Z,16.57
2018-02-09T07:10:18.506Z,16.51
2018-02-09T07:11:21.010Z,16.46
2018-02-09T07:12:23.544Z,16.43
2018-02-09T07:13:26.044Z,16.38
2018-02-09T07:14:28.535Z,16.35
2018-02-09T07:15:31.047Z,16.30
2018-02-09T07:16:33.521Z,16.24
2018-02-09T07:17:36.008Z,16.09
2018-02-09T07:18:38.554Z,15.97
2018-02-09T07:19:41.032Z,15.84
2018-02-09T07:20:43.524Z,15.67
2018-02-09T07:21:46.064Z,15.55
2018-02-09T07:22:48.659Z,15.42
2018-02-09T07:23:51.139Z,15.26
2018-02-09T07:24:53.643Z,15.27
2018-02-09T07:25:56.119Z,15.25
2018-02-09T07:26:58.608Z,15.28
2018-02-09T07:28:01.108Z,15.34
2018-02-09T07:29:03.596Z,15.46
2018-02-09T07:30:06.089Z,15.56
2018-02-09T07:31:08.578Z,15.73
2018-02-09T07:32:11.110Z,15.93
2018-02-09T07:33:13.720Z,16.18
2018-02-09T07:34:16.211Z,16.41
2018-02-09T07:35:18.692Z,16.64
2018-02-09T07:36:21.184Z,16.92
2018-02-09T07:37:23.663Z,17.13
2018-02-09T07:38:26.165Z,17.37
2018-02-09T07:39:28.643Z,17.59
2018-02-09T07:40:31.133Z,17.75
2018-02-09T07:41:33.803Z,17.92
2018-02-09T07:42:36.305Z,18.02
2018-02-09T07:43:38.778Z,18.13
2018-02-09T07:44:41.254Z,18.19
2018-02-09T07:45:44.068Z,18.22
2018-02-09T07:46:46.576Z,18.27
2018-02-09T07:47:49.054Z,18.27
2018-02-09T07:48:51.552Z,18.31
2018-02-09T07:49:54.119Z,18.35
2018-02-09T07:50:56.608Z,18.37
2018-02-09T07:51:59.105Z,18.41
2018-02-09T07:53:01.906Z,18.52
2018-02-09T07:54:04.421Z,18.63
2018-02-09T07:55:06.917Z,18.72
2018-02-09T07:56:09.409Z,18.81
2018-02-09T07:57:11.888Z,18.91
2018-02-09T07:58:14.381Z,18.94
2018-02-09T07:59:16.956Z,19.00
2018-02-09T08:00:19.435Z,19.02
2018-02-09T08:01:21.934Z,19.06
2018-02-09T08:02:24.430Z,19.06
2018-02-09T08:03:26.927Z,19.07
2018-02-09T08:04:29.423Z,19.06
2018-02-09T08:05:31.920Z,19.03
2018-02-09T08:06:34.398Z,19.01
2018-02-09T08:07:36.874Z,19.01
2018-02-09T08:08:39.377Z,19.07
2018-02-09T08:09:41.852Z,19.15
2018-02-09T08:10:44.344Z,19.17
2018-02-09T08:11:46.874Z,19.23
2018-02-09T08:12:49.392Z,19.30
2018-02-09T08:13:51.889Z,19.36
2018-02-09T08:14:54.366Z,19.40
2018-02-09T08:15:56.856Z,19.45
2018-02-09T08:16:59.346Z,19.47
2018-02-09T08:18:01.833Z,19.50
2018-02-09T08:19:04.316Z,19.50
2018-02-09T08:20:06.825Z,19.47
2018-02-09T08:21:09.302Z,19.46
2018-02-09T08:22:11.785Z,19.42
2018-02-09T08:23:14.291Z,19.41
2018-02-09T08:24:16.777Z,19.40
2018-02-09T08:25:19.251Z,19.42
2018-02-09T08:26:21.736Z,19.41
2018-02-09T08:27:24.207Z,19.48
2018-02-09T08:28:26.693Z,19.53
2018-02-09T08:29:29.177Z,19.59
2018-02-09T08:30:31.647Z,19.66
2018-02-09T08:31:34.149Z,19.72
2018-02-09T08:32:36.635Z,19.75
2018-02-09T08:33:39.119Z,19.80
2018-02-09T08:34:41.608Z,19.84
2018-02-09T08:35:44.094Z,19.80
2018-02-09T08:36:46.572Z,19.80
2018-02-09T08:37:49.064Z,19.78
2018-02-09T08:38:51.551Z,19.72
2018-02-09T08:39:54.022Z,19.67
2018-02-09T08:40:56.501Z,19.64
2018-02-09T08:41:58.966Z,19.65
2018-02-09T08:43:01.462Z,19.67
2018-02-09T08:44:03.957Z,19.71
2018-02-09T08:45:06.469Z,19.78
2018-02-09T08:46:08.988Z,19.85
2018-02-09T08:47:11.484Z,19.91
2018-02-09T08:48:14.001Z,19.94
2018-02-09T08:49:16.505Z,19.98
2018-02-09T08:50:18.970Z,20.02
2018-02-09T08:51:21.439Z,20.02
2018-02-09T08:52:23.937Z,20.01
2018-02-09T08:53:26.417Z,20.00
2018-02-09T08:54:28.883Z,20.00
2018-02-09T08:55:31.364Z,19.98
2018-02-09T08:56:33.835Z,19.92
2018-02-09T08:57:36.320Z,19.89
2018-02-09T08:58:38.810Z,19.88
2018-02-09T08:59:41.311Z,19.89
2018-02-09T09:00:43.782Z,19.90
2018-02-09T09:01:46.246Z,19.95
2018-02-09T09:02:48.738Z,19.96
2018-02-09T09:03:51.279Z,20.05
2018-02-09T09:04:53.761Z,20.07
2018-02-09T09:05:56.240Z,20.16
2018-02-09T09:06:58.756Z,20.20
2018-02-09T09:08:01.227Z,20.19
2018-02-09T09:09:03.705Z,20.24
2018-02-09T09:10:06.296Z,20.21
2018-02-09T09:11:08.772Z,20.24
2018-02-09T09:12:11.253Z,20.18
2018-02-09T09:13:13.741Z,20.10
2018-02-09T09:14:16.233Z,20.07
2018-02-09T09:15:18.725Z,20.07
2018-02-09T09:16:21.194Z,20.09
2018-02-09T09:17:23.662Z,20.15
2018-02-09T09:18:26.151Z,20.17
2018-02-09T09:19:28.633Z,20.22
2018-02-09T09:20:31.108Z,20.26
2018-02-09T09:21:33.578Z,20.30
2018-02-09T09:22:36.065Z,20.34
2018-02-09T09:23:38.541Z,20.38
2018-02-09T09:24:41.006Z,20.38
2018-02-09T09:25:43.479Z,20.39
2018-02-09T09:26:45.951Z,20.41
2018-02-09T09:27:48.419Z,20.44
2018-02-09T09:28:50.891Z,20.43
2018-02-09T09:29:53.371Z,20.38
2018-02-09T09:30:55.834Z,20.39
2018-02-09T09:31:58.308Z,20.37
2018-02-09T09:33:00.770Z,20.45
2018-02-09T09:34:03.253Z,20.50
2018-02-09T09:35:05.714Z,20.57
2018-02-09T09:36:08.196Z,20.59
2018-02-09T09:37:10.670Z,20.71
2018-02-09T09:38:13.144Z,20.74
2018-02-09T09:39:15.606Z,20.80
2018-02-09T09:40:18.081Z,20.80
2018-02-09T09:41:20.544Z,20.79
2018-02-09T09:42:23.006Z,20.73
2018-02-09T09:43:25.484Z,20.71
2018-02-09T09:44:27.960Z,20.72
2018-02-09T09:45:30.440Z,20.67
2018-02-09T09:46:32.921Z,20.67
2018-02-09T09:47:35.409Z,20.64
2018-02-09T09:48:37.940Z,20.59
2018-02-09T09:49:40.424Z,20.54
2018-02-09T09:50:42.901Z,20.51
2018-02-09T09:51:45.371Z,20.44
2018-02-09T09:52:47.843Z,20.39
2018-02-09T09:53:50.328Z,20.37
2018-02-09T09:54:52.802Z,20.36
2018-02-09T09:55:55.285Z,20.38
2018-02-09T09:56:57.769Z,20.45
2018-02-09T09:58:00.252Z,20.43
2018-02-09T09:59:02.741Z,20.49
2018-02-09T10:00:05.236Z,20.49
2018-02-09T10:01:13.277Z,20.54
2018-02-09T10:02:27.498Z,20.58
2018-02-09T10:03:29.980Z,20.58
2018-02-09T10:04:32.464Z,20.58
2018-02-09T10:05:34.949Z,20.56
2018-02-09T10:06:37.419Z,20.54
2018-02-09T10:07:39.939Z,20.54
2018-02-09T10:08:42.406Z,20.51
2018-02-09T10:09:44.933Z,20.47
2018-02-09T10:10:47.424Z,20.43
2018-02-09T10:11:49.890Z,20.41
2018-02-09T10:12:52.373Z,20.38
2018-02-09T10:13:54.852Z,20.33
2018-02-09T10:14:57.315Z,20.28
2018-02-09T10:15:59.798Z,20.25
2018-02-09T10:17:02.267Z,20.29
2018-02-09T10:18:04.739Z,20.32
2018-02-09T10:19:07.221Z,20.34
2018-02-09T10:20:09.747Z,20.37
2018-02-09T10:21:12.244Z,20.43
2018-02-09T10:22:14.733Z,20.49
2018-02-09T10:23:17.223Z,20.58
2018-02-09T10:24:19.703Z,20.60
2018-02-09T10:25:22.201Z,20.64
2018-02-09T10:26:24.681Z,20.63
2018-02-09T10:27:27.163Z,20.63
2018-02-09T10:28:29.640Z,20.64
2018-02-09T10:29:32.120Z,20.62
2018-02-09T10:30:34.601Z,20.62
2018-02-09T10:31:37.085Z,20.60
2018-02-09T10:32:39.569Z,20.57
2018-02-09T10:33:42.044Z,20.53
2018-02-09T10:34:44.530Z,20.49
2018-02-09T10:35:47.090Z,20.43
2018-02-09T10:36:49.555Z,20.40
2018-02-09T10:37:52.098Z,20.38
2018-02-09T10:38:54.553Z,20.37
2018-02-09T10:39:57.033Z,20.42
2018-02-09T10:40:59.502Z,20.40
2018-02-09T10:42:01.984Z,20.49
2018-02-09T10:43:04.446Z,20.56
2018-02-09T10:44:06.920Z,20.61
2018-02-09T10:45:09.401Z,20.67
2018-02-09T10:46:11.872Z,20.72
2018-02-09T10:47:14.366Z,20.73
2018-02-09T10:48:16.844Z,20.71
2018-02-09T10:49:19.320Z,20.72
2018-02-09T10:50:21.809Z,20.73
2018-02-09T10:51:24.297Z,20.73
2018-02-09T10:52:26.768Z,20.70
2018-02-09T10:53:29.234Z,20.67
2018-02-09T10:54:31.708Z,20.66
2018-02-09T10:55:34.170Z,20.65
2018-02-09T10:56:36.699Z,20.58
2018-02-09T10:57:39.160Z,20.55
2018-02-09T10:58:41.626Z,20.50
2018-02-09T10:59:44.105Z,20.46
2018-02-09T11:00:52.301Z,20.44
2018-02-09T11:01:54.793Z,20.41
2018-02-09T11:02:57.268Z,20.41
2018-02-09T11:03:59.735Z,20.45
2018-02-09T11:05:02.206Z,20.47
2018-02-09T11:06:04.670Z,20.52
2018-02-09T11:07:07.150Z,20.55
2018-02-09T11:08:09.612Z,20.62
2018-02-09T11:09:12.081Z,20.64
2018-02-09T11:10:35.437Z,20.65
2018-02-09T11:11:37.903Z,20.68
2018-02-09T11:12:43.306Z,20.69
2018-02-09T11:13:45.896Z,20.68
2018-02-09T11:14:48.401Z,20.64
2018-02-09T11:15:50.884Z,20.63
2018-02-09T11:16:53.358Z,20.62
2018-02-09T11:17:55.839Z,20.61
2018-02-09T11:18:58.319Z,20.62
2018-02-09T11:20:00.829Z,20.59
2018-02-09T11:21:03.299Z,20.56
2018-02-09T11:22:05.866Z,20.54
2018-02-09T11:23:08.343Z,20.52
2018-02-09T11:24:10.806Z,20.49
2018-02-09T11:25:13.309Z,20.48
2018-02-09T11:26:15.805Z,20.45
2018-02-09T11:27:18.266Z,20.43
2018-02-09T11:28:20.730Z,20.39
2018-02-09T11:29:23.195Z,20.37
2018-02-09T11:30:25.696Z,20.34
2018-02-09T11:31:28.173Z,20.29
2018-02-09T11:32:30.648Z,20.24
2018-02-09T11:33:33.153Z,20.20
2018-02-09T11:34:35.628Z,20.17
2018-02-09T11:35:38.114Z,20.14
2018-02-09T11:36:40.597Z,20.08
2018-02-09T11:37:43.077Z,20.03
2018-02-09T11:38:45.544Z,20.01
2018-02-09T11:39:48.054Z,19.98
2018-02-09T11:40:50.546Z,19.95
2018-02-09T11:41:53.015Z,19.91
2018-02-09T11:42:55.482Z,19.88
2018-02-09T11:43:57.951Z,19.83
2018-02-09T11:45:00.415Z,19.79
2018-02-09T11:46:02.921Z,19.78
2018-02-09T11:47:05.401Z,19.74
2018-02-09T11:48:07.886Z,19.75
2018-02-09T11:49:10.375Z,19.79
2018-02-09T11:50:12.858Z,19.82
2018-02-09T11:51:15.364Z,19.88
2018-02-09T11:52:17.838Z,19.98
2018-02-09T11:53:20.320Z,20.07
2018-02-09T11:54:22.805Z,20.19
2018-02-09T11:55:25.288Z,20.29
2018-02-09T11:56:27.785Z,20.32
2018-02-09T11:57:30.374Z,20.38
2018-02-09T11:58:32.841Z,20.46
2018-02-09T11:59:35.298Z,20.48
2018-02-09T12:00:37.808Z,20.50
2018-02-09T12:01:40.301Z,20.50
2018-02-09T12:02:42.774Z,20.49
2018-02-09T12:03:45.271Z,20.46
2018-02-09T12:04:47.734Z,20.44
2018-02-09T12:05:50.203Z,20.41
2018-02-09T12:06:52.709Z,20.37
2018-02-09T12:07:55.179Z,20.30
2018-02-09T12:08:57.646Z,20.29
2018-02-09T12:10:00.153Z,20.26
2018-02-09T12:11:02.628Z,20.24
2018-02-09T12:12:05.133Z,20.25
2018-02-09T12:13:07.608Z,20.25
2018-02-09T12:14:10.071Z,20.32
2018-02-09T12:15:12.539Z,20.37
2018-02-09T12:16:15.003Z,20.43
2018-02-09T12:17:17.509Z,20.44
2018-02-09T12:18:19.975Z,20.48
2018-02-09T12:19:22.443Z,20.46
2018-02-09T12:20:24.925Z,20.50
2018-02-09T12:21:27.443Z,20.52
2018-02-09T12:22:29.941Z,20.51
2018-02-09T12:23:32.425Z,20.48
2018-02-09T12:24:34.905Z,20.45
2018-02-09T12:25:37.397Z,20.43
2018-02-09T12:26:39.867Z,20.39
2018-02-09T12:27:42.354Z,20.35
2018-02-09T12:28:44.841Z,20.31
2018-02-09T12:29:47.333Z,20.27
2018-02-09T12:30:49.830Z,20.22
2018-02-09T12:31:52.299Z,20.19
2018-02-09T12:32:54.786Z,20.15
2018-02-09T12:33:57.265Z,20.10
2018-02-09T12:34:59.738Z,20.09
2018-02-09T12:36:02.221Z,20.08
2018-02-09T12:37:04.766Z,20.12
2018-02-09T12:38:07.282Z,20.20
2018-02-09T12:39:09.765Z,20.25
2018-02-09T12:40:12.240Z,20.30
2018-02-09T12:41:14.718Z,20.36
2018-02-09T12:42:17.182Z,20.39
2018-02-09T12:43:19.716Z,20.41
2018-02-09T12:44:22.197Z,20.45
2018-02-09T12:45:24.678Z,20.45
2018-02-09T12:46:27.164Z,20.47
2018-02-09T12:47:29.640Z,20.45
2018-02-09T12:48:32.126Z,20.47
2018-02-09T12:49:34.608Z,20.45
2018-02-09T12:50:37.089Z,20.41
2018-02-09T12:51:39.617Z,20.37
2018-02-09T12:52:42.066Z,20.36
2018-02-09T12:53:44.557Z,20.36
2018-02-09T12:54:47.049Z,20.37
2018-02-09T12:55:49.533Z,20.36
2018-02-09T12:56:52.023Z,20.35
2018-02-09T12:57:54.512Z,20.33
2018-02-09T12:58:57.002Z,20.32
2018-02-09T12:59:59.484Z,20.30
2018-02-09T13:01:01.976Z,20.31
2018-02-09T13:02:04.455Z,20.29
2018-02-09T13:03:06.937Z,20.28
2018-02-09T13:04:09.427Z,20.23
2018-02-09T13:05:11.927Z,20.20
2018-02-09T13:06:14.413Z,20.17
2018-02-09T13:07:16.897Z,20.13
2018-02-09T13:08:19.402Z,20.07
2018-02-09T13:09:22.044Z,20.02
2018-02-09T13:10:24.530Z,19.99
2018-02-09T13:11:26.999Z,19.97
2018-02-09T13:12:41.285Z,19.97
2018-02-09T13:13:43.775Z,19.99
2018-02-09T13:14:49.991Z,20.02
2018-02-09T13:15:52.467Z,20.10
2018-02-09T13:16:55.053Z,20.20
2018-02-09T13:17:58.034Z,20.27
2018-02-09T13:19:00.557Z,20.37
2018-02-09T13:20:03.348Z,20.46
2018-02-09T13:21:05.888Z,20.53
2018-02-09T13:22:08.374Z,20.58
2018-02-09T13:23:22.818Z,20.61
2018-02-09T13:24:25.668Z,20.66
2018-02-09T13:25:28.546Z,20.68